sim
Sign-in with your pilot id or email,
or register
Callsign
Passwort

Schedule Details

Flight Number: EWG1700 (2)
Departure: Munich Airport (EDDM) at 11:05
Arrival: Thessaloniki International Airport (LGTS) at 13:05
Route: Eurowings Passenger Schedule. Enter filed route here before submitting Pirep.

Weather Information
Getting current METAR information for EDDM 230620Z VRB01KT 8000 BKN045 15/14 Q1026 NOSIG
Getting current METAR information for LGTS 230620Z VRB02KT CAVOK 28/18 Q1019 NOSIG

Schedule Frequency

Route Map